sensor_id;sensor_type;location;lat;lon;timestamp;pressure;altitude;pressure_sealevel;temperature;humidity
80137;BME280;76989;55.950;37.484;2024-03-22T00:02:09;100006.31;;;1.52;56.92
80137;BME280;76989;55.950;37.484;2024-03-22T00:04:36;99974.03;;;1.27;56.20
80137;BME280;76989;55.950;37.484;2024-03-22T00:07:03;99952.84;;;1.16;56.04
80137;BME280;76989;55.950;37.484;2024-03-22T00:09:29;99997.69;;;1.40;57.73
80137;BME280;76989;55.950;37.484;2024-03-22T00:11:55;100006.78;;;1.47;55.16
80137;BME280;76989;55.950;37.484;2024-03-22T00:14:21;99986.63;;;1.35;54.89
80137;BME280;76989;55.950;37.484;2024-03-22T00:16:47;99975.84;;;1.27;54.88
80137;BME280;76989;55.950;37.484;2024-03-22T00:19:14;99964.06;;;1.20;54.60
80137;BME280;76989;55.950;37.484;2024-03-22T00:21:41;100005.13;;;1.46;54.97
80137;BME280;76989;55.950;37.484;2024-03-22T00:24:08;100004.28;;;1.46;54.89
80137;BME280;76989;55.950;37.484;2024-03-22T00:26:35;100005.66;;;1.50;54.47
80137;BME280;76989;55.950;37.484;2024-03-22T00:29:01;99978.28;;;1.38;54.83
80137;BME280;76989;55.950;37.484;2024-03-22T00:31:29;99967.97;;;1.25;54.83
80137;BME280;76989;55.950;37.484;2024-03-22T00:33:56;100002.59;;;1.45;54.68
80137;BME280;76989;55.950;37.484;2024-03-22T00:36:22;100011.59;;;1.44;54.02
80137;BME280;76989;55.950;37.484;2024-03-22T00:38:48;99945.13;;;1.13;54.29
80137;BME280;76989;55.950;37.484;2024-03-22T00:41:14;99968.94;;;1.24;53.78
80137;BME280;76989;55.950;37.484;2024-03-22T00:43:41;99967.97;;;1.25;54.08
80137;BME280;76989;55.950;37.484;2024-03-22T00:46:07;100003.44;;;1.45;53.77
80137;BME280;76989;55.950;37.484;2024-03-22T00:48:33;99960.31;;;1.13;55.33
80137;BME280;76989;55.950;37.484;2024-03-22T00:51:02;100007.22;;;1.43;55.43
80137;BME280;76989;55.950;37.484;2024-03-22T00:53:29;99983.09;;;1.34;54.60
80137;BME280;76989;55.950;37.484;2024-03-22T00:55:56;99947.94;;;1.12;54.58
80137;BME280;76989;55.950;37.484;2024-03-22T00:58:29;99982.97;;;1.36;54.80
80137;BME280;76989;55.950;37.484;2024-03-22T01:00:55;99972.47;;;1.25;53.91
80137;BME280;76989;55.950;37.484;2024-03-22T01:03:23;99974.03;;;1.27;53.45
80137;BME280;76989;55.950;37.484;2024-03-22T01:05:50;99960.25;;;1.22;53.71
80137;BME280;76989;55.950;37.484;2024-03-22T01:08:16;99990.44;;;1.32;53.67
80137;BME280;76989;55.950;37.484;2024-03-22T01:10:42;99991.81;;;1.37;53.99
80137;BME280;76989;55.950;37.484;2024-03-22T01:13:08;99949.72;;;1.21;53.90
80137;BME280;76989;55.950;37.484;2024-03-22T01:15:34;99918.22;;;0.97;54.33
80137;BME280;76989;55.950;37.484;2024-03-22T01:18:01;99977.22;;;1.31;54.89
80137;BME280;76989;55.950;37.484;2024-03-22T01:20:27;99951.16;;;1.15;54.42
80137;BME280;76989;55.950;37.484;2024-03-22T01:22:53;99961.69;;;1.17;54.62
80137;BME280;76989;55.950;37.484;2024-03-22T01:25:21;99968.94;;;1.24;54.28
80137;BME280;76989;55.950;37.484;2024-03-22T01:27:47;99927.53;;;0.93;54.22
80137;BME280;76989;55.950;37.484;2024-03-22T01:30:13;99973.16;;;1.27;54.32
80137;BME280;76989;55.950;37.484;2024-03-22T01:32:39;99966.97;;;1.26;53.91
80137;BME280;76989;55.950;37.484;2024-03-22T01:35:05;99964.84;;;1.30;53.29
80137;BME280;76989;55.950;37.484;2024-03-22T01:37:31;99927.56;;;1.11;53.46
80137;BME280;76989;55.950;37.484;2024-03-22T01:39:57;99950.50;;;1.31;52.77
80137;BME280;76989;55.950;37.484;2024-03-22T01:42:24;99935.91;;;1.25;53.49
80137;BME280;76989;55.950;37.484;2024-03-22T01:44:50;99964.97;;;1.28;54.77
80137;BME280;76989;55.950;37.484;2024-03-22T01:47:16;99919.47;;;1.03;54.34
80137;BME280;76989;55.950;37.484;2024-03-22T01:49:43;99929.63;;;0.99;55.17
80137;BME280;76989;55.950;37.484;2024-03-22T01:52:11;99915.25;;;0.82;54.73
80137;BME280;76989;55.950;37.484;2024-03-22T01:54:38;99919.75;;;0.82;55.40
80137;BME280;76989;55.950;37.484;2024-03-22T01:57:04;99944.41;;;0.94;55.75
80137;BME280;76989;55.950;37.484;2024-03-22T01:59:33;99911.00;;;0.62;55.98
80137;BME280;76989;55.950;37.484;2024-03-22T02:02:00;99958.63;;;0.94;56.57
80137;BME280;76989;55.950;37.484;2024-03-22T02:04:26;99947.94;;;0.94;55.11
80137;BME280;76989;55.950;37.484;2024-03-22T02:06:52;99921.72;;;0.80;54.88
80137;BME280;76989;55.950;37.484;2024-03-22T02:09:18;99922.44;;;0.82;55.48
80137;BME280;76989;55.950;37.484;2024-03-22T02:11:47;99911.34;;;0.77;54.21
80137;BME280;76989;55.950;37.484;2024-03-22T02:14:13;99908.69;;;0.77;53.42
80137;BME280;76989;55.950;37.484;2024-03-22T02:16:40;99887.81;;;0.63;53.49
80137;BME280;76989;55.950;37.484;2024-03-22T02:19:07;99898.31;;;0.64;54.75
80137;BME280;76989;55.950;37.484;2024-03-22T02:21:33;99882.88;;;0.68;53.93
80137;BME280;76989;55.950;37.484;2024-03-22T02:23:59;99921.41;;;0.83;53.78
80137;BME280;76989;55.950;37.484;2024-03-22T02:26:25;99924.25;;;0.81;52.98
80137;BME280;76989;55.950;37.484;2024-03-22T02:28:51;99942.63;;;0.84;54.43
80137;BME280;76989;55.950;37.484;2024-03-22T02:31:19;99936.75;;;0.81;53.48
80137;BME280;76989;55.950;37.484;2024-03-22T02:33:46;99905.66;;;0.62;53.14
80137;BME280;76989;55.950;37.484;2024-03-22T02:36:13;99912.91;;;0.70;54.54
80137;BME280;76989;55.950;37.484;2024-03-22T02:38:39;99912.06;;;0.69;54.54
80137;BME280;76989;55.950;37.484;2024-03-22T02:41:05;99890.94;;;0.58;55.80
80137;BME280;76989;55.950;37.484;2024-03-22T02:43:31;99904.38;;;0.66;54.72
80137;BME280;76989;55.950;37.484;2024-03-22T02:45:57;99872.75;;;0.44;55.59
80137;BME280;76989;55.950;37.484;2024-03-22T02:48:23;99883.28;;;0.46;55.09
80137;BME280;76989;55.950;37.484;2024-03-22T02:50:49;99911.06;;;0.53;55.39
80137;BME280;76989;55.950;37.484;2024-03-22T02:53:20;99851.94;;;0.20;54.50
80137;BME280;76989;55.950;37.484;2024-03-22T02:55:48;99891.97;;;0.48;54.72
80137;BME280;76989;55.950;37.484;2024-03-22T02:58:14;99909.75;;;0.57;56.02
80137;BME280;76989;55.950;37.484;2024-03-22T03:00:40;99918.06;;;0.54;55.59
80137;BME280;76989;55.950;37.484;2024-03-22T03:03:07;99873.97;;;0.22;55.80
80137;BME280;76989;55.950;37.484;2024-03-22T03:05:35;99913.63;;;0.44;55.87
80137;BME280;76989;55.950;37.484;2024-03-22T03:08:01;99885.63;;;0.21;55.98
80137;BME280;76989;55.950;37.484;2024-03-22T03:10:29;99886.47;;;0.22;56.20
80137;BME280;76989;55.950;37.484;2024-03-22T03:12:56;99896.72;;;0.26;56.40
80137;BME280;76989;55.950;37.484;2024-03-22T03:15:22;99892.22;;;0.27;56.42
80137;BME280;76989;55.950;37.484;2024-03-22T03:17:48;99899.63;;;0.33;55.87
80137;BME280;76989;55.950;37.484;2024-03-22T03:20:14;99907.03;;;0.39;55.88
80137;BME280;76989;55.950;37.484;2024-03-22T03:22:42;99838.97;;;-0.02;56.37
80137;BME280;76989;55.950;37.484;2024-03-22T03:25:08;99893.00;;;0.37;56.66
80137;BME280;76989;55.950;37.484;2024-03-22T03:27:35;99901.97;;;0.46;56.05
80137;BME280;76989;55.950;37.484;2024-03-22T03:30:02;99864.53;;;0.28;56.34
80137;BME280;76989;55.950;37.484;2024-03-22T03:32:33;99883.91;;;0.30;56.69
80137;BME280;76989;55.950;37.484;2024-03-22T03:35:00;99849.03;;;0.14;57.39
80137;BME280;76989;55.950;37.484;2024-03-22T03:37:26;99864.97;;;0.23;56.26
80137;BME280;76989;55.950;37.484;2024-03-22T03:39:53;99877.78;;;0.47;56.40
80137;BME280;76989;55.950;37.484;2024-03-22T03:42:19;99843.78;;;0.22;56.80
80137;BME280;76989;55.950;37.484;2024-03-22T03:44:45;99883.50;;;0.52;57.63
80137;BME280;76989;55.950;37.484;2024-03-22T03:47:11;99854.66;;;0.38;58.26
80137;BME280;76989;55.950;37.484;2024-03-22T03:49:37;99839.38;;;0.30;58.93
80137;BME280;76989;55.950;37.484;2024-03-22T03:52:04;99860.63;;;0.50;57.94
80137;BME280;76989;55.950;37.484;2024-03-22T03:54:31;99876.91;;;0.74;58.03
80137;BME280;76989;55.950;37.484;2024-03-22T03:56:57;99866.03;;;0.85;57.88
80137;BME280;76989;55.950;37.484;2024-03-22T03:59:23;99838.94;;;0.98;57.97
80137;BME280;76989;55.950;37.484;2024-03-22T04:01:50;99859.81;;;1.38;56.99
80137;BME280;76989;55.950;37.484;2024-03-22T04:04:16;99864.47;;;1.53;56.87
80137;BME280;76989;55.950;37.484;2024-03-22T04:06:44;99874.00;;;2.07;55.24
80137;BME280;76989;55.950;37.484;2024-03-22T04:09:11;99864.69;;;2.61;54.14
80137;BME280;76989;55.950;37.484;2024-03-22T04:11:37;99804.47;;;2.90;52.32
80137;BME280;76989;55.950;37.484;2024-03-22T04:14:04;99865.66;;;3.83;50.18
80137;BME280;76989;55.950;37.484;2024-03-22T04:16:32;99838.38;;;4.19;49.09
80137;BME280;76989;55.950;37.484;2024-03-22T04:18:59;99869.66;;;4.89;47.93
80137;BME280;76989;55.950;37.484;2024-03-22T04:21:25;99860.22;;;5.39;46.09
80137;BME280;76989;55.950;37.484;2024-03-22T04:23:51;99848.72;;;5.68;44.60
80137;BME280;76989;55.950;37.484;2024-03-22T04:26:18;99857.91;;;6.26;44.76
80137;BME280;76989;55.950;37.484;2024-03-22T04:28:44;99841.84;;;6.32;44.11
80137;BME280;76989;55.950;37.484;2024-03-22T04:31:13;99841.44;;;6.20;44.62
80137;BME280;76989;55.950;37.484;2024-03-22T04:33:40;99848.41;;;6.44;44.76
80137;BME280;76989;55.950;37.484;2024-03-22T04:36:06;99851.16;;;6.65;43.65
80137;BME280;76989;55.950;37.484;2024-03-22T04:38:35;99811.09;;;6.77;42.01
80137;BME280;76989;55.950;37.484;2024-03-22T04:41:01;99827.22;;;7.34;42.26
80137;BME280;76989;55.950;37.484;2024-03-22T04:43:28;99811.03;;;7.34;42.33
80137;BME280;76989;55.950;37.484;2024-03-22T04:45:54;99808.25;;;7.49;41.43
80137;BME280;76989;55.950;37.484;2024-03-22T04:48:21;99841.13;;;8.08;39.77
80137;BME280;76989;55.950;37.484;2024-03-22T04:50:51;99839.19;;;8.64;39.35
80137;BME280;76989;55.950;37.484;2024-03-22T04:53:20;99836.25;;;9.26;38.63
80137;BME280;76989;55.950;37.484;2024-03-22T04:55:50;99832.72;;;10.18;36.96
80137;BME280;76989;55.950;37.484;2024-03-22T04:58:20;99838.78;;;10.07;35.39
80137;BME280;76989;55.950;37.484;2024-03-22T05:00:49;99794.50;;;10.39;34.89
80137;BME280;76989;55.950;37.484;2024-03-22T05:03:16;99792.44;;;10.86;34.07
80137;BME280;76989;55.950;37.484;2024-03-22T05:05:43;99830.47;;;11.80;33.12
80137;BME280;76989;55.950;37.484;2024-03-22T05:08:09;99786.81;;;11.75;32.01
80137;BME280;76989;55.950;37.484;2024-03-22T05:10:36;99799.81;;;12.34;31.40
80137;BME280;76989;55.950;37.484;2024-03-22T05:13:02;99811.00;;;12.44;31.41
80137;BME280;76989;55.950;37.484;2024-03-22T05:15:29;99793.38;;;12.83;30.41
80137;BME280;76989;55.950;37.484;2024-03-22T05:17:57;99820.41;;;13.14;30.10
80137;BME280;76989;55.950;37.484;2024-03-22T05:20:25;99787.00;;;12.71;30.63
80137;BME280;76989;55.950;37.484;2024-03-22T05:22:52;99781.50;;;12.59;30.24
80137;BME280;76989;55.950;37.484;2024-03-22T05:25:18;99813.47;;;12.09;31.35
80137;BME280;76989;55.950;37.484;2024-03-22T05:27:45;99779.09;;;11.16;32.21
80137;BME280;76989;55.950;37.484;2024-03-22T05:30:12;99765.59;;;11.34;32.50
80137;BME280;76989;55.950;37.484;2024-03-22T05:32:43;99798.69;;;11.80;31.94
80137;BME280;76989;55.950;37.484;2024-03-22T05:35:09;99794.50;;;12.03;31.42
80137;BME280;76989;55.950;37.484;2024-03-22T05:37:35;99787.13;;;12.28;31.07
80137;BME280;76989;55.950;37.484;2024-03-22T05:40:03;99756.63;;;12.56;30.66
80137;BME280;76989;55.950;37.484;2024-03-22T05:42:34;99791.19;;;12.73;30.56
80137;BME280;76989;55.950;37.484;2024-03-22T05:45:00;99791.75;;;12.75;30.75
80137;BME280;76989;55.950;37.484;2024-03-22T05:47:27;99778.66;;;12.54;30.89
80137;BME280;76989;55.950;37.484;2024-03-22T05:49:53;99763.94;;;12.73;30.45
80137;BME280;76989;55.950;37.484;2024-03-22T05:52:19;99787.66;;;13.32;30.22
80137;BME280;76989;55.950;37.484;2024-03-22T05:54:45;99780.47;;;13.73;29.13
80137;BME280;76989;55.950;37.484;2024-03-22T05:57:12;99758.66;;;13.85;28.96
80137;BME280;76989;55.950;37.484;2024-03-22T05:59:38;99780.13;;;13.69;29.03
80137;BME280;76989;55.950;37.484;2024-03-22T06:02:05;99743.25;;;13.79;28.88
80137;BME280;76989;55.950;37.484;2024-03-22T06:04:32;99755.34;;;13.59;29.00
80137;BME280;76989;55.950;37.484;2024-03-22T06:06:58;99776.91;;;14.07;28.62
80137;BME280;76989;55.950;37.484;2024-03-22T06:09:29;99783.13;;;14.78;27.92
80137;BME280;76989;55.950;37.484;2024-03-22T06:12:17;99762.94;;;15.07;27.50
80137;BME280;76989;55.950;37.484;2024-03-22T06:14:44;99732.53;;;14.75;27.47
80137;BME280;76989;55.950;37.484;2024-03-22T06:17:11;99722.63;;;14.86;27.51
80137;BME280;76989;55.950;37.484;2024-03-22T06:19:39;99762.53;;;15.15;27.60
80137;BME280;76989;55.950;37.484;2024-03-22T06:22:06;99771.78;;;14.97;27.37
80137;BME280;76989;55.950;37.484;2024-03-22T06:24:34;99734.81;;;14.95;27.28
80137;BME280;76989;55.950;37.484;2024-03-22T06:27:00;99723.66;;;15.13;26.70
80137;BME280;76989;55.950;37.484;2024-03-22T06:29:26;99753.59;;;15.36;27.24
80137;BME280;76989;55.950;37.484;2024-03-22T06:31:54;99754.09;;;15.17;26.85
80137;BME280;76989;55.950;37.484;2024-03-22T06:34:20;99710.19;;;15.23;27.07
80137;BME280;76989;55.950;37.484;2024-03-22T06:36:49;99755.19;;;15.32;26.83
80137;BME280;76989;55.950;37.484;2024-03-22T06:39:18;99736.13;;;15.37;26.86
80137;BME280;76989;55.950;37.484;2024-03-22T06:41:45;99754.81;;;15.74;26.80
80137;BME280;76989;55.950;37.484;2024-03-22T06:44:13;99743.91;;;15.45;26.75
80137;BME280;76989;55.950;37.484;2024-03-22T06:46:39;99734.38;;;15.15;27.60
80137;BME280;76989;55.950;37.484;2024-03-22T06:49:06;99707.31;;;15.30;26.91
80137;BME280;76989;55.950;37.484;2024-03-22T06:51:32;99727.69;;;15.39;26.94
80137;BME280;76989;55.950;37.484;2024-03-22T06:53:58;99749.88;;;15.42;27.37
80137;BME280;76989;55.950;37.484;2024-03-22T06:56:27;99752.47;;;15.04;27.59
80137;BME280;76989;55.950;37.484;2024-03-22T06:58:53;99759.78;;;14.58;28.28
80137;BME280;76989;55.950;37.484;2024-03-22T07:01:19;99717.28;;;13.88;28.78
80137;BME280;76989;55.950;37.484;2024-03-22T07:03:46;99725.19;;;13.31;29.86
80137;BME280;76989;55.950;37.484;2024-03-22T07:06:14;99740.78;;;13.65;30.06
80137;BME280;76989;55.950;37.484;2024-03-22T07:08:42;99747.75;;;13.85;29.43
80137;BME280;76989;55.950;37.484;2024-03-22T07:11:08;99752.88;;;13.93;29.28
80137;BME280;76989;55.950;37.484;2024-03-22T07:13:39;99731.25;;;14.14;28.80
80137;BME280;76989;55.950;37.484;2024-03-22T07:16:06;99739.28;;;14.33;28.98
80137;BME280;76989;55.950;37.484;2024-03-22T07:18:32;99743.22;;;14.77;28.27
80137;BME280;76989;55.950;37.484;2024-03-22T07:20:59;99729.44;;;15.00;28.24
80137;BME280;76989;55.950;37.484;2024-03-22T07:23:27;99704.22;;;15.26;27.48
80137;BME280;76989;55.950;37.484;2024-03-22T07:25:54;99715.50;;;15.80;26.74
80137;BME280;76989;55.950;37.484;2024-03-22T07:28:21;99718.72;;;15.77;26.37
80137;BME280;76989;55.950;37.484;2024-03-22T07:30:49;99726.81;;;16.27;26.39
80137;BME280;76989;55.950;37.484;2024-03-22T07:33:15;99725.06;;;16.37;26.23
80137;BME280;76989;55.950;37.484;2024-03-22T07:35:47;99714.03;;;16.32;26.12
80137;BME280;76989;55.950;37.484;2024-03-22T07:38:13;99722.13;;;16.22;25.96
80137;BME280;76989;55.950;37.484;2024-03-22T07:40:39;99704.53;;;16.18;26.11
80137;BME280;76989;55.950;37.484;2024-03-22T07:43:06;99694.88;;;16.32;25.63
80137;BME280;76989;55.950;37.484;2024-03-22T07:45:34;99682.72;;;16.45;25.62
80137;BME280;76989;55.950;37.484;2024-03-22T07:48:01;99693.25;;;16.31;25.49
80137;BME280;76989;55.950;37.484;2024-03-22T07:50:28;99672.06;;;15.83;25.91
80137;BME280;76989;55.950;37.484;2024-03-22T07:52:54;99654.44;;;15.96;25.66
80137;BME280;76989;55.950;37.484;2024-03-22T07:55:21;99696.72;;;15.67;26.00
80137;BME280;76989;55.950;37.484;2024-03-22T07:57:47;99613.09;;;15.04;25.94
80137;BME280;76989;55.950;37.484;2024-03-22T08:00:14;99665.78;;;15.16;26.51
80137;BME280;76989;55.950;37.484;2024-03-22T08:02:41;99682.00;;;15.23;26.35
80137;BME280;76989;55.950;37.484;2024-03-22T08:05:07;99675.13;;;15.03;26.43
80137;BME280;76989;55.950;37.484;2024-03-22T08:07:34;99656.50;;;14.84;26.30
80137;BME280;76989;55.950;37.484;2024-03-22T08:10:01;99648.06;;;14.57;26.64
80137;BME280;76989;55.950;37.484;2024-03-22T08:12:30;99672.03;;;14.15;26.79
80137;BME280;76989;55.950;37.484;2024-03-22T08:14:56;99634.97;;;13.09;27.76
80137;BME280;76989;55.950;37.484;2024-03-22T08:17:22;99664.03;;;12.74;28.45
80137;BME280;76989;55.950;37.484;2024-03-22T08:19:48;99633.44;;;12.01;29.32
80137;BME280;76989;55.950;37.484;2024-03-22T08:22:14;99655.91;;;11.71;29.46
80137;BME280;76989;55.950;37.484;2024-03-22T08:24:40;99645.88;;;11.29;29.68
80137;BME280;76989;55.950;37.484;2024-03-22T08:27:07;99621.47;;;11.04;30.36
80137;BME280;76989;55.950;37.484;2024-03-22T08:29:35;99595.75;;;10.82;30.30
80137;BME280;76989;55.950;37.484;2024-03-22T08:32:01;99591.22;;;10.76;30.30
80137;BME280;76989;55.950;37.484;2024-03-22T08:34:30;99602.16;;;10.87;29.90
80137;BME280;76989;55.950;37.484;2024-03-22T08:36:59;99603.63;;;10.90;30.09
80137;BME280;76989;55.950;37.484;2024-03-22T08:39:26;99613.75;;;11.01;30.55
80137;BME280;76989;55.950;37.484;2024-03-22T08:41:55;99612.38;;;11.17;30.54
80137;BME280;76989;55.950;37.484;2024-03-22T08:44:23;99591.31;;;10.87;30.45
80137;BME280;76989;55.950;37.484;2024-03-22T08:46:49;99617.09;;;11.03;29.92
80137;BME280;76989;55.950;37.484;2024-03-22T08:49:15;99604.69;;;11.14;30.41
80137;BME280;76989;55.950;37.484;2024-03-22T08:51:42;99613.41;;;11.16;30.19
80137;BME280;76989;55.950;37.484;2024-03-22T08:54:08;99609.44;;;11.18;30.55
80137;BME280;76989;55.950;37.484;2024-03-22T08:56:35;99587.22;;;11.03;30.40
80137;BME280;76989;55.950;37.484;2024-03-22T08:59:02;99564.66;;;11.02;30.62
80137;BME280;76989;55.950;37.484;2024-03-22T09:01:30;99593.59;;;10.90;30.98
80137;BME280;76989;55.950;37.484;2024-03-22T09:03:56;99604.63;;;10.71;31.35
80137;BME280;76989;55.950;37.484;2024-03-22T09:06:22;99586.88;;;10.43;31.23
80137;BME280;76989;55.950;37.484;2024-03-22T09:08:49;99577.28;;;10.41;31.05
80137;BME280;76989;55.950;37.484;2024-03-22T09:11:16;99589.31;;;10.51;31.56
80137;BME280;76989;55.950;37.484;2024-03-22T09:13:43;99571.03;;;10.40;31.54
80137;BME280;76989;55.950;37.484;2024-03-22T09:16:15;99601.06;;;10.70;31.45
80137;BME280;76989;55.950;37.484;2024-03-22T09:18:41;99590.84;;;10.72;31.11
80137;BME280;76989;55.950;37.484;2024-03-22T09:21:07;99576.44;;;10.72;31.26
80137;BME280;76989;55.950;37.484;2024-03-22T09:23:38;99588.53;;;10.69;31.72
80137;BME280;76989;55.950;37.484;2024-03-22T09:26:06;99568.22;;;10.53;31.62
80137;BME280;76989;55.950;37.484;2024-03-22T09:28:32;99594.81;;;10.70;32.32
80137;BME280;76989;55.950;37.484;2024-03-22T09:31:02;99580.41;;;10.44;32.25
80137;BME280;76989;55.950;37.484;2024-03-22T09:33:32;99572.44;;;10.49;32.27
80137;BME280;76989;55.950;37.484;2024-03-22T09:35:59;99552.84;;;10.41;31.78
80137;BME280;76989;55.950;37.484;2024-03-22T09:38:25;99578.59;;;10.63;31.90
80137;BME280;76989;55.950;37.484;2024-03-22T09:40:51;99554.25;;;10.25;32.31
80137;BME280;76989;55.950;37.484;2024-03-22T09:43:23;99526.63;;;10.03;32.12
80137;BME280;76989;55.950;37.484;2024-03-22T09:45:50;99549.28;;;10.09;32.61
80137;BME280;76989;55.950;37.484;2024-03-22T09:48:20;99572.56;;;10.30;32.21
80137;BME280;76989;55.950;37.484;2024-03-22T09:50:47;99562.41;;;10.18;32.07
80137;BME280;76989;55.950;37.484;2024-03-22T09:53:18;99566.38;;;10.09;32.25
80137;BME280;76989;55.950;37.484;2024-03-22T09:55:47;99567.22;;;10.10;29.69
80137;BME280;76989;55.950;37.484;2024-03-22T09:58:22;99512.16;;;9.78;28.82
80137;BME280;76989;55.950;37.484;2024-03-22T10:00:48;99554.72;;;10.09;28.59
80137;BME280;76989;55.950;37.484;2024-03-22T10:03:15;99561.34;;;10.19;27.54
80137;BME280;76989;55.950;37.484;2024-03-22T10:15:34;99540.72;;;10.12;29.51
80137;BME280;76989;55.950;37.484;2024-03-22T10:18:03;99513.28;;;9.95;29.09
80137;BME280;76989;55.950;37.484;2024-03-22T10:20:30;99524.22;;;10.13;29.15
80137;BME280;76989;55.950;37.484;2024-03-22T10:23:00;99518.59;;;9.84;29.41
80137;BME280;76989;55.950;37.484;2024-03-22T10:25:29;99518.38;;;9.85;30.01
80137;BME280;76989;55.950;37.484;2024-03-22T10:27:57;99482.59;;;9.70;29.50
80137;BME280;76989;55.950;37.484;2024-03-22T10:30:25;99530.03;;;9.86;29.99
80137;BME280;76989;55.950;37.484;2024-03-22T10:32:51;99518.78;;;9.82;29.82
80137;BME280;76989;55.950;37.484;2024-03-22T10:35:18;99509.41;;;9.85;29.28
80137;BME280;76989;55.950;37.484;2024-03-22T10:37:45;99508.34;;;9.86;30.53
80137;BME280;76989;55.950;37.484;2024-03-22T10:40:12;99504.19;;;9.90;30.26
80137;BME280;76989;55.950;37.484;2024-03-22T10:42:42;99516.66;;;9.91;30.11
80137;BME280;76989;55.950;37.484;2024-03-22T10:45:12;99502.97;;;9.79;30.95
80137;BME280;76989;55.950;37.484;2024-03-22T10:47:40;99482.91;;;9.49;31.03
80137;BME280;76989;55.950;37.484;2024-03-22T10:50:10;99476.25;;;9.51;31.06
80137;BME280;76989;55.950;37.484;2024-03-22T10:55:26;99488.16;;;9.44;32.42
80137;BME280;76989;55.950;37.484;2024-03-22T10:58:01;99476.91;;;9.40;32.63
80137;BME280;76989;55.950;37.484;2024-03-22T11:00:34;99489.19;;;9.43;32.33
80137;BME280;76989;55.950;37.484;2024-03-22T11:03:05;99482.56;;;9.39;32.02
80137;BME280;76989;55.950;37.484;2024-03-22T11:05:32;99477.56;;;9.35;32.77
80137;BME280;76989;55.950;37.484;2024-03-22T11:08:05;99471.91;;;9.44;32.71
80137;BME280;76989;55.950;37.484;2024-03-22T11:10:35;99463.03;;;9.30;32.04
80137;BME280;76989;55.950;37.484;2024-03-22T11:13:08;99464.19;;;9.47;32.46
80137;BME280;76989;55.950;37.484;2024-03-22T11:15:40;99429.88;;;9.34;32.59
80137;BME280;76989;55.950;37.484;2024-03-22T11:18:09;99434.22;;;9.35;32.24
80137;BME280;76989;55.950;37.484;2024-03-22T11:20:38;99466.66;;;9.49;32.44
80137;BME280;76989;55.950;37.484;2024-03-22T11:23:04;99435.75;;;9.25;32.37
80137;BME280;76989;55.950;37.484;2024-03-22T11:25:32;99424.34;;;9.16;32.78
80137;BME280;76989;55.950;37.484;2024-03-22T11:28:00;99414.75;;;9.20;32.90
80137;BME280;76989;55.950;37.484;2024-03-22T11:30:30;99406.97;;;9.30;33.02
80137;BME280;76989;55.950;37.484;2024-03-22T11:32:57;99405.06;;;9.38;33.23
80137;BME280;76989;55.950;37.484;2024-03-22T11:35:25;99429.53;;;9.56;33.12
80137;BME280;76989;55.950;37.484;2024-03-22T11:37:53;99382.19;;;9.33;32.71
80137;BME280;76989;55.950;37.484;2024-03-22T11:40:19;99408.66;;;9.63;32.27
80137;BME280;76989;55.950;37.484;2024-03-22T11:42:50;99373.97;;;9.47;32.43
80137;BME280;76989;55.950;37.484;2024-03-22T11:45:19;99379.00;;;9.43;32.61
80137;BME280;76989;55.950;37.484;2024-03-22T11:47:49;99388.91;;;9.56;31.46
80137;BME280;76989;55.950;37.484;2024-03-22T11:50:16;99392.72;;;9.48;31.97
80137;BME280;76989;55.950;37.484;2024-03-22T11:52:45;99373.72;;;9.55;31.86
80137;BME280;76989;55.950;37.484;2024-03-22T11:55:14;99327.78;;;9.35;31.88
80137;BME280;76989;55.950;37.484;2024-03-22T11:57:48;99366.22;;;9.57;32.30
80137;BME280;76989;55.950;37.484;2024-03-22T12:00:14;99365.31;;;9.63;31.50
80137;BME280;76989;55.950;37.484;2024-03-22T12:02:41;99371.44;;;9.52;30.55
80137;BME280;76989;55.950;37.484;2024-03-22T12:05:09;99340.28;;;9.36;30.93
80137;BME280;76989;55.950;37.484;2024-03-22T12:07:37;99330.09;;;9.31;30.56
80137;BME280;76989;55.950;37.484;2024-03-22T12:10:04;99347.50;;;9.49;30.86
80137;BME280;76989;55.950;37.484;2024-03-22T12:12:32;99312.63;;;9.34;30.84
80137;BME280;76989;55.950;37.484;2024-03-22T12:15:00;99337.91;;;9.53;30.74
80137;BME280;76989;55.950;37.484;2024-03-22T12:17:39;99344.09;;;9.60;31.34
80137;BME280;76989;55.950;37.484;2024-03-22T12:20:09;99299.63;;;9.43;30.88
80137;BME280;76989;55.950;37.484;2024-03-22T12:22:37;99320.25;;;9.44;31.09
80137;BME280;76989;55.950;37.484;2024-03-22T12:25:04;99308.81;;;9.42;31.21
80137;BME280;76989;55.950;37.484;2024-03-22T12:27:32;99298.19;;;9.40;30.35
80137;BME280;76989;55.950;37.484;2024-03-22T12:29:58;99273.44;;;9.37;30.56
80137;BME280;76989;55.950;37.484;2024-03-22T12:32:25;99297.81;;;9.61;31.16
80137;BME280;76989;55.950;37.484;2024-03-22T12:34:51;99286.47;;;9.46;30.71
80137;BME280;76989;55.950;37.484;2024-03-22T12:37:19;99297.28;;;9.53;30.57
80137;BME280;76989;55.950;37.484;2024-03-22T12:39:45;99295.16;;;9.55;30.30
80137;BME280;76989;55.950;37.484;2024-03-22T12:42:12;99292.00;;;9.58;30.08
80137;BME280;76989;55.950;37.484;2024-03-22T12:44:39;99257.19;;;9.37;29.99
80137;BME280;76989;55.950;37.484;2024-03-22T12:47:05;99279.28;;;9.58;29.68
80137;BME280;76989;55.950;37.484;2024-03-22T12:49:31;99235.91;;;9.40;29.55
80137;BME280;76989;55.950;37.484;2024-03-22T12:51:59;99267.78;;;9.63;28.96
80137;BME280;76989;55.950;37.484;2024-03-22T12:54:26;99276.75;;;9.63;29.47
80137;BME280;76989;55.950;37.484;2024-03-22T12:56:53;99250.22;;;9.47;29.71
80137;BME280;76989;55.950;37.484;2024-03-22T12:59:19;99243.78;;;9.48;28.55
80137;BME280;76989;55.950;37.484;2024-03-22T13:01:46;99262.38;;;9.63;28.87
80137;BME280;76989;55.950;37.484;2024-03-22T13:04:13;99228.19;;;9.44;28.51
80137;BME280;76989;55.950;37.484;2024-03-22T13:06:40;99263.00;;;9.65;28.69
80137;BME280;76989;55.950;37.484;2024-03-22T13:09:06;99260.06;;;9.66;28.84